YBHM Airport Information

Runway Information
Runway 14 Length 5591 ft width 148 ft
Elevation 15 ft Threshold 196 ft Heading 143
Runway 32 Length 5591 ft Width 148 ft
Elevation 15 ft Threshold 196 ft Heading 323
Airport Frequencies
Type ATIS Name ATIS Frequency 114.4 MHZ
Type CTAF Name CTAF Frequency 126.7 MHZ
Type FSS Name BRISBANE C Frequency 135.5 MHZ
Type TWR Name TWR Frequency 118.7 MHZ
Airport Navaids
Type VOR-DME Name Hamilton Island Frequency 114400 KHZ
Type NDB Name Hamilton Island Frequency 383 KHZ
Airport Weather Information & NOTAM
ADDS - METARS form results

(1629 UTC 26 September 2022)
Data provider http://aviationweather.gov/metar/data/
 
METAR text: YBHM 261600Z AUTO 09003KT 9999 // NCD 23/19 Q1013 RF00.0/000.0
Conditions at: YBHM (HAMILTON ISLAND , AU) observed 1600 UTC 26 September 2022
Temperature: 23.0°C (73°F)
Dewpoint: 19.0°C (66°F) [RH = 78%]
Pressure (altimeter): 29.91 inches Hg (1013.0 mb)
Winds: from the E (90 degrees) at 3 MPH (3 knots; 1.5 m/s)
Visibility: 6 or more miles (10+ km)
Ceiling: at least 12,000 feet AGL
Clouds: sky clear below 12,000 feet AGL
Weather: no significant weather observed at this time

METAR text: YBHM 261530Z AUTO 08004KT 9999 // NCD 23/19 Q1013 RF00.0/000.0
Conditions at: YBHM (HAMILTON ISLAND , AU) observed 1530 UTC 26 September 2022
Temperature: 23.0°C (73°F)
Dewpoint: 19.0°C (66°F) [RH = 78%]
Pressure (altimeter): 29.91 inches Hg (1013.0 mb)
Winds: from the E (80 degrees) at 5 MPH (4 knots; 2.1 m/s)
Visibility: 6 or more miles (10+ km)
Ceiling: at least 12,000 feet AGL
Clouds: sky clear below 12,000 feet AGL
Weather: no significant weather observed at this time

Forecast for: YBHM (HAMILTON ISLAND , AU)
Text: TAF YBHM 261049Z 2612/2700 06009KT 9999 FEW025
Forecast period: 1200 to 2200 UTC 26 September 2022
Forecast type: FROM: standard forecast or significant change
Winds: from the ENE (60 degrees) at 10 MPH (9 knots; 4.6 m/s)
Visibility: 6 or more miles (10+ km)
Ceiling: at least 12,000 feet AGL
Clouds: few clouds at 2500 feet AGL
Weather: no significant weather forecast for this period
Text: FM262200 09012KT 9999 SCT025
Forecast period: 2200 UTC 26 September 2022 to 0000 UTC 27 September 2022
Forecast type: FROM: standard forecast or significant change
Winds: from the E (90 degrees) at 14 MPH (12 knots; 6.2 m/s)
Visibility: 6 or more miles (10+ km)
Ceiling: at least 12,000 feet AGL
Clouds: scattered clouds at 2500 feet AGL
Weather: no significant weather forecast for this period